Time;durP1;ratioP1;P1;durP2;ratioP2;P2;SDS_P1;SDS_P2;PMS_P1;PMS_P2;Temp;Humidity;BMP_temperature;BMP_pressure;BME280_temperature;BME280_humidity;BME280_pressure;Samples;Min_cycle;Max_cycle;Signal;HPM_P1;HPM_P2
2022/01/24 05:07:37;;;;;;;26.98;12.45;;;7.10;64.30;;;;;;4965634;28;20227;-87
2022/01/24 05:10:14;;;;;;;30.40;13.37;;;7.20;64.10;;;;;;4942614;28;20176;-88
2022/01/24 05:23:29;;;;;;;26.08;12.52;;;6.90;64.60;;;;;;4976313;28;20250;-88
2022/01/24 05:25:57;;;;;;;25.15;12.27;;;6.90;64.30;;;;;;4959182;28;20207;-87
2022/01/24 05:28:23;;;;;;;27.52;13.30;;;7.00;65.10;;;;;;4948617;29;20181;-88
2022/01/24 05:30:49;;;;;;;31.00;12.40;;;7.10;64.20;;;;;;4947280;28;20241;-88
2022/01/24 05:33:16;;;;;;;32.35;14.93;;;7.10;64.00;;;;;;4962710;28;20180;-87
2022/01/24 05:35:41;;;;;;;27.13;12.55;;;7.20;63.50;;;;;;4969869;28;20611;-88
2022/01/24 05:38:10;;;;;;;29.83;12.70;;;7.00;63.20;;;;;;4956859;28;20207;-88
2022/01/24 05:40:36;;;;;;;30.35;11.85;;;7.10;63.30;;;;;;4951231;29;20200;-88
2022/01/24 05:43:02;;;;;;;24.00;11.43;;;7.20;63.10;;;;;;4960884;29;20217;-89
2022/01/24 05:45:28;;;;;;;28.40;13.17;;;7.10;63.10;;;;;;4964299;28;20196;-88
2022/01/24 05:47:54;;;;;;;28.60;13.23;;;7.10;63.20;;;;;;4947872;28;20437;-87
2022/01/24 05:50:20;;;;;;;36.83;14.00;;;6.90;63.40;;;;;;4952185;28;20271;-86
2022/01/24 05:52:45;;;;;;;29.60;12.27;;;6.90;63.90;;;;;;4970067;28;20184;-87
2022/01/24 05:55:11;;;;;;;24.90;11.00;;;6.90;64.30;;;;;;4954467;28;20551;-88
2022/01/24 05:57:37;;;;;;;24.97;12.13;;;6.70;64.40;;;;;;4952420;28;20180;-89
2022/01/24 06:00:12;;;;;;;23.02;11.85;;;6.50;64.50;;;;;;4968780;28;20428;-88
2022/01/24 06:02:38;;;;;;;25.42;11.65;;;6.50;64.90;;;;;;4942670;29;20205;-87
2022/01/24 06:05:04;;;;;;;33.75;14.68;;;6.60;64.90;;;;;;4954103;28;20196;-88
2022/01/24 06:07:29;;;;;;;30.50;14.52;;;6.60;64.80;;;;;;4964815;28;20207;-89
2022/01/24 06:09:59;;;;;;;28.37;12.53;;;6.70;65.10;;;;;;4945587;28;20268;-89
2022/01/24 06:12:26;;;;;;;24.48;10.95;;;6.70;64.90;;;;;;4953698;28;20301;-89
2022/01/24 06:14:51;;;;;;;26.30;12.57;;;6.60;64.80;;;;;;4969880;28;20707;-89
2022/01/24 06:17:17;;;;;;;26.37;11.60;;;6.70;64.70;;;;;;4951175;28;20183;-88
2022/01/24 06:19:44;;;;;;;27.37;13.20;;;6.70;64.90;;;;;;4965681;28;20184;-89
2022/01/24 06:22:12;;;;;;;24.95;12.13;;;6.70;65.00;;;;;;4946834;28;20534;-89
2022/01/24 06:24:39;;;;;;;28.60;13.63;;;6.80;64.70;;;;;;4948725;28;20177;-89
2022/01/24 06:27:18;;;;;;;29.08;13.82;;;6.90;65.20;;;;;;4948167;29;20683;-89
2022/01/24 06:29:47;;;;;;;26.10;12.00;;;6.80;64.30;;;;;;4956120;28;20172;-89
2022/01/24 06:32:13;;;;;;;26.25;13.00;;;6.90;64.30;;;;;;4947762;29;20180;-89
2022/01/24 06:34:39;;;;;;;34.10;14.50;;;6.80;64.20;;;;;;4944401;28;20279;-88
2022/01/24 06:37:05;;;;;;;29.80;12.43;;;6.70;64.30;;;;;;4971970;28;20191;-89
2022/01/24 06:39:31;;;;;;;30.48;14.90;;;6.60;64.20;;;;;;4967022;28;20192;-88
2022/01/24 06:42:13;;;;;;;33.90;17.07;;;6.70;64.80;;;;;;4968130;28;20203;-88
2022/01/24 06:44:39;;;;;;;28.70;14.35;;;6.80;64.60;;;;;;4940736;28;20424;-88
2022/01/24 06:47:05;;;;;;;27.02;12.93;;;6.50;64.40;;;;;;4943941;28;20303;-88
2022/01/24 06:49:31;;;;;;;24.20;13.07;;;6.50;64.70;;;;;;4950509;28;20191;-88
2022/01/24 06:51:58;;;;;;;27.30;12.73;;;6.40;64.90;;;;;;4942984;28;20180;-88
2022/01/24 06:54:35;;;;;;;24.35;11.98;;;6.20;65.00;;;;;;4949260;28;20434;-88
2022/01/24 06:57:02;;;;;;;30.05;12.80;;;6.20;65.40;;;;;;4958965;28;20180;-88
2022/01/24 06:59:28;;;;;;;32.58;15.90;;;6.10;65.90;;;;;;4959934;28;20180;-89
2022/01/24 07:01:53;;;;;;;35.47;14.73;;;6.20;66.10;;;;;;4953503;28;20211;-89
2022/01/24 07:04:19;;;;;;;40.00;16.93;;;6.20;66.10;;;;;;4963336;28;20183;-89
2022/01/24 07:06:45;;;;;;;72.53;25.80;;;6.20;66.10;;;;;;4956134;29;20192;-89
2022/01/24 07:09:12;;;;;;;45.60;19.35;;;6.10;66.20;;;;;;4961714;28;20491;-88
2022/01/24 07:11:39;;;;;;;34.40;14.43;;;6.20;66.50;;;;;;4950712;29;20291;-88
2022/01/24 07:14:10;;;;;;;34.60;14.95;;;6.20;66.40;;;;;;4946404;28;20192;-89
2022/01/24 07:19:27;;;;;;;25.70;13.10;;;6.40;66.30;;;;;;4925772;28;20214;-88
2022/01/24 07:21:59;;;;;;;29.52;13.02;;;6.30;66.00;;;;;;4940672;29;20215;-88
2022/01/24 07:24:25;;;;;;;21.88;11.23;;;6.30;66.40;;;;;;4940475;28;20192;-88
2022/01/24 07:26:51;;;;;;;26.23;12.43;;;6.30;66.20;;;;;;4962409;28;20180;-88
2022/01/24 07:29:18;;;;;;;30.35;12.93;;;6.40;66.30;;;;;;4964268;28;20263;-89
2022/01/24 07:31:44;;;;;;;25.35;12.00;;;6.50;66.40;;;;;;4968462;28;20562;-88
2022/01/24 07:34:10;;;;;;;19.75;10.65;;;6.30;66.10;;;;;;4975405;28;20183;-88
2022/01/24 07:36:36;;;;;;;27.17;12.10;;;6.10;66.30;;;;;;4958946;28;20231;-89
2022/01/24 07:39:05;;;;;;;24.87;11.63;;;6.00;66.60;;;;;;4951630;29;21061;-88
2022/01/24 07:41:33;;;;;;;25.90;10.90;;;6.00;66.80;;;;;;4928066;28;21032;-88
2022/01/24 07:43:59;;;;;;;26.92;11.98;;;6.10;66.90;;;;;;4958920;28;20188;-89
2022/01/24 07:46:25;;;;;;;28.88;12.70;;;6.30;66.80;;;;;;4944388;29;20205;-88
2022/01/24 07:49:19;;;;;;;26.77;13.37;;;6.10;66.40;;;;;;4949045;28;20259;-89
2022/01/24 07:51:44;;;;;;;41.90;15.25;;;6.30;66.70;;;;;;4962408;28;20200;-89
2022/01/24 07:54:10;;;;;;;25.03;13.10;;;6.30;66.70;;;;;;4961413;28;20553;-89
2022/01/24 07:56:38;;;;;;;29.93;14.13;;;6.30;66.60;;;;;;4961715;28;20574;-89
2022/01/24 07:59:04;;;;;;;25.30;12.60;;;6.30;66.60;;;;;;4962124;28;20415;-88
2022/01/24 08:01:30;;;;;;;29.77;13.00;;;6.20;66.60;;;;;;4962152;28;20215;-88
2022/01/24 08:03:56;;;;;;;28.40;12.17;;;6.20;66.80;;;;;;4964233;28;20191;-89
2022/01/24 08:06:22;;;;;;;31.43;11.73;;;6.30;66.80;;;;;;4964686;28;20459;-89
2022/01/24 08:08:48;;;;;;;28.60;13.38;;;6.40;66.50;;;;;;4964703;28;20419;-89
2022/01/24 08:11:15;;;;;;;29.90;12.07;;;6.50;66.40;;;;;;4966440;28;20183;-89
2022/01/24 08:13:41;;;;;;;28.85;12.43;;;6.50;66.10;;;;;;4967382;28;20208;-89
2022/01/24 08:16:07;;;;;;;31.53;13.20;;;6.60;65.90;;;;;;4969234;28;20204;-89
2022/01/24 08:18:32;;;;;;;27.93;13.87;;;6.50;65.90;;;;;;4980778;28;20691;-89
2022/01/24 08:20:58;;;;;;;26.27;11.50;;;6.60;65.70;;;;;;4964448;28;20718;-89
2022/01/24 08:23:24;;;;;;;26.83;12.17;;;6.50;65.80;;;;;;4964353;28;20463;-89
2022/01/24 08:25:50;;;;;;;26.57;11.97;;;6.50;65.60;;;;;;4967171;28;20207;-90
2022/01/24 08:28:16;;;;;;;27.30;12.10;;;6.40;65.70;;;;;;4972085;28;20172;-89
2022/01/24 08:30:42;;;;;;;26.77;12.13;;;6.50;66.00;;;;;;4978305;28;20403;-89
2022/01/24 08:33:07;;;;;;;24.63;12.70;;;6.60;65.90;;;;;;4980500;28;20954;-90
2022/01/24 08:35:33;;;;;;;27.40;11.07;;;6.60;66.00;;;;;;4978508;28;20462;-91
2022/01/24 08:37:59;;;;;;;25.10;11.93;;;6.70;66.00;;;;;;4972507;28;20436;-89
2022/01/24 08:40:27;;;;;;;26.33;10.17;;;6.50;65.70;;;;;;4970603;28;20499;-89
2022/01/24 08:43:04;;;;;;;21.73;11.77;;;6.60;65.90;;;;;;4975399;28;20214;-89
2022/01/24 08:48:16;;;;;;;26.10;12.38;;;6.60;66.10;;;;;;4979857;28;20152;-89
2022/01/24 08:50:43;;;;;;;30.60;12.88;;;6.60;66.20;;;;;;4962202;28;20175;-89
2022/01/24 08:53:10;;;;;;;27.48;11.38;;;6.80;66.00;;;;;;4965561;28;20183;-89
2022/01/24 08:55:37;;;;;;;29.77;12.93;;;6.90;65.90;;;;;;4968871;28;20899;-89
2022/01/24 08:58:06;;;;;;;31.80;11.48;;;6.90;65.80;;;;;;4977194;28;20176;-91
2022/01/24 09:00:32;;;;;;;33.15;13.85;;;7.00;65.40;;;;;;4970724;28;20199;-90
2022/01/24 09:02:58;;;;;;;22.70;12.85;;;7.10;65.50;;;;;;4980626;28;20574;-89
2022/01/24 09:05:27;;;;;;;21.67;12.03;;;6.90;65.00;;;;;;4963563;28;20204;-89
2022/01/24 09:07:53;;;;;;;28.83;12.07;;;7.10;65.10;;;;;;4963674;28;20561;-90
2022/01/24 09:10:20;;;;;;;23.08;11.68;;;7.00;64.90;;;;;;4963513;28;20188;-90
2022/01/24 09:12:46;;;;;;;25.83;13.35;;;7.10;64.90;;;;;;4963414;28;20180;-90
2022/01/24 09:15:11;;;;;;;30.27;12.37;;;7.10;65.10;;;;;;4962269;28;20702;-89
2022/01/24 09:17:38;;;;;;;27.30;12.53;;;7.00;64.70;;;;;;4962041;28;20796;-89
2022/01/24 09:20:05;;;;;;;30.52;12.85;;;7.10;65.20;;;;;;4961458;28;20180;-90
2022/01/24 09:22:34;;;;;;;34.20;12.45;;;7.20;65.10;;;;;;4961422;28;20265;-89
2022/01/24 09:25:04;;;;;;;32.50;12.60;;;7.10;64.80;;;;;;4960521;28;20203;-89
2022/01/24 09:27:30;;;;;;;26.08;13.15;;;7.10;64.80;;;;;;4960864;28;20501;-90
2022/01/24 09:29:57;;;;;;;26.60;12.00;;;7.20;64.70;;;;;;4960674;28;20259;-89
2022/01/24 09:32:23;;;;;;;27.65;12.95;;;7.40;65.30;;;;;;4960435;28;20431;-89
2022/01/24 09:34:49;;;;;;;30.02;13.05;;;7.20;64.50;;;;;;4944523;28;20983;-89
2022/01/24 09:37:15;;;;;;;28.27;12.77;;;7.20;64.90;;;;;;4961056;28;20295;-90
2022/01/24 09:39:40;;;;;;;25.20;12.77;;;7.40;64.90;;;;;;4961686;28;20190;-89
2022/01/24 09:42:07;;;;;;;27.33;15.00;;;7.50;64.60;;;;;;4961609;28;21097;-89
2022/01/24 09:44:33;;;;;;;30.75;13.43;;;7.60;64.50;;;;;;4960130;28;20204;-90
2022/01/24 09:47:17;;;;;;;26.20;13.00;;;7.40;64.20;;;;;;4953061;29;20244;-90
2022/01/24 09:49:45;;;;;;;34.88;12.60;;;7.20;64.80;;;;;;4943439;29;20684;-89
2022/01/24 09:52:11;;;;;;;32.33;13.43;;;7.30;65.00;;;;;;4950158;28;20192;-89
2022/01/24 09:54:37;;;;;;;24.00;12.50;;;7.20;64.70;;;;;;4971450;28;20717;-89
2022/01/24 09:57:03;;;;;;;25.27;12.70;;;7.30;64.80;;;;;;4949455;29;20527;-89
2022/01/24 09:59:29;;;;;;;35.40;13.05;;;7.40;64.80;;;;;;4963120;28;20431;-89
2022/01/24 10:01:55;;;;;;;31.27;14.40;;;7.40;64.50;;;;;;4978813;28;20211;-89
2022/01/24 10:04:25;;;;;;;28.90;14.48;;;7.30;64.40;;;;;;4959810;28;20180;-89
2022/01/24 10:07:15;;;;;;;31.13;15.45;;;7.00;64.70;;;;;;4961438;28;20554;-89
2022/01/24 10:09:51;;;;;;;28.48;13.60;;;6.90;65.10;;;;;;4961806;28;20164;-89
2022/01/24 10:17:41;;;;;;;26.98;13.48;;;7.30;65.20;;;;;;4978162;28;20202;-89
2022/01/24 10:20:25;;;;;;;32.80;14.20;;;7.30;65.10;;;;;;4960446;28;20355;-89
2022/01/24 10:23:13;;;;;;;28.08;13.23;;;7.30;64.30;;;;;;4959855;28;20206;-89
2022/01/24 10:25:53;;;;;;;29.33;14.15;;;6.90;64.20;;;;;;4977680;28;20207;-89
2022/01/24 10:28:43;;;;;;;33.00;15.23;;;6.90;64.70;;;;;;4968145;28;20188;-89
2022/01/24 10:31:10;;;;;;;26.95;13.40;;;6.90;65.20;;;;;;4940876;29;20263;-89
2022/01/24 10:34:03;;;;;;;26.60;14.45;;;7.00;65.20;;;;;;4940702;29;20189;-89
2022/01/24 10:36:51;;;;;;;28.00;12.50;;;7.20;65.20;;;;;;4940790;29;20291;-90
2022/01/24 10:40:19;;;;;;;33.28;14.00;;;7.20;64.70;;;;;;4941277;29;20181;-89
2022/01/24 10:44:57;;;;;;;31.17;16.10;;;7.10;64.50;;;;;;4962317;28;20687;-89
2022/01/24 10:47:29;;;;;;;33.53;15.02;;;7.30;64.20;;;;;;4941302;29;20216;-89
2022/01/24 10:49:57;;;;;;;28.02;15.30;;;7.30;64.30;;;;;;4940640;29;20259;-89
2022/01/24 10:52:29;;;;;;;31.52;15.63;;;7.50;64.40;;;;;;4941723;29;20235;-89
2022/01/24 10:55:10;;;;;;;29.67;14.45;;;7.70;64.40;;;;;;4940846;29;20208;-89
2022/01/24 10:57:40;;;;;;;25.70;13.02;;;7.80;64.10;;;;;;4940407;29;20236;-89
2022/01/24 11:00:23;;;;;;;32.92;15.30;;;7.50;63.20;;;;;;4940591;29;20215;-90
2022/01/24 11:02:50;;;;;;;25.15;13.00;;;7.50;63.30;;;;;;4941600;29;20204;-90
2022/01/24 11:05:20;;;;;;;26.83;14.48;;;7.30;63.40;;;;;;4940189;28;20255;-90
2022/01/24 11:07:51;;;;;;;25.85;13.25;;;7.30;63.90;;;;;;4940187;29;20176;-90
2022/01/24 11:10:17;;;;;;;33.40;15.90;;;7.30;63.80;;;;;;4940038;29;20200;-90
2022/01/24 11:12:43;;;;;;;31.67;14.30;;;7.40;63.80;;;;;;4940119;29;20184;-90
2022/01/24 11:15:11;;;;;;;27.02;14.10;;;7.60;64.30;;;;;;4940784;29;20459;-90
2022/01/24 11:17:37;;;;;;;32.47;14.82;;;7.30;64.30;;;;;;4940675;29;20311;-89
2022/01/24 11:20:04;;;;;;;28.02;14.90;;;7.20;63.80;;;;;;4941904;28;20669;-90
2022/01/24 11:22:33;;;;;;;35.13;14.75;;;7.40;63.40;;;;;;4945522;29;20219;-89
2022/01/24 11:25:03;;;;;;;31.10;16.38;;;7.50;63.10;;;;;;4944758;29;20271;-90
2022/01/24 11:27:29;;;;;;;28.77;14.00;;;7.70;62.80;;;;;;4945205;29;20188;-90
2022/01/24 11:29:58;;;;;;;30.52;14.98;;;7.90;62.60;;;;;;4947029;29;20251;-90
2022/01/24 11:32:34;;;;;;;29.25;15.25;;;7.90;62.30;;;;;;4946650;29;20191;-90
2022/01/24 11:35:01;;;;;;;30.02;14.98;;;7.80;62.30;;;;;;4944372;29;20657;-90
2022/01/24 11:37:45;;;;;;;32.05;15.48;;;8.00;62.20;;;;;;4943626;29;20191;-90
2022/01/24 11:40:11;;;;;;;23.20;12.77;;;8.00;61.50;;;;;;4944795;29;20192;-90
2022/01/24 11:42:37;;;;;;;28.63;14.43;;;8.00;61.50;;;;;;4946137;29;20254;-90
2022/01/24 11:45:17;;;;;;;29.88;16.40;;;8.10;61.30;;;;;;4942828;29;20204;-90
2022/01/24 11:47:44;;;;;;;30.45;13.77;;;7.80;61.40;;;;;;4958135;28;20585;-90
2022/01/24 11:50:37;;;;;;;36.15;14.57;;;8.00;61.70;;;;;;4961800;28;20266;-90
2022/01/24 11:53:26;;;;;;;30.90;14.80;;;7.60;61.70;;;;;;4961857;28;20175;-90
2022/01/24 11:55:54;;;;;;;26.58;14.70;;;7.70;62.30;;;;;;4962621;28;20257;-89
2022/01/24 11:58:28;;;;;;;24.85;13.15;;;7.90;62.00;;;;;;4962353;28;20679;-90
2022/01/24 12:00:57;;;;;;;31.58;16.27;;;7.70;62.40;;;;;;4964068;28;20172;-90
2022/01/24 12:03:27;;;;;;;27.52;14.45;;;7.40;62.90;;;;;;4976024;28;20212;-91
2022/01/24 12:05:58;;;;;;;28.83;14.55;;;7.50;63.60;;;;;;4978389;28;20278;-90
2022/01/24 12:08:59;;;;;;;35.28;16.58;;;7.60;63.40;;;;;;4966107;28;20272;-90
2022/01/24 12:11:30;;;;;;;32.17;16.17;;;7.50;63.20;;;;;;4950748;29;20208;-90
2022/01/24 12:14:10;;;;;;;30.33;15.73;;;7.60;63.80;;;;;;4956196;28;20196;-91
2022/01/24 12:16:39;;;;;;;30.30;15.95;;;7.60;63.40;;;;;;4964203;28;20198;-90
2022/01/24 12:19:06;;;;;;;28.20;15.35;;;7.40;63.10;;;;;;4962754;28;20186;-89
2022/01/24 12:21:36;;;;;;;30.83;14.95;;;7.60;63.10;;;;;;4946522;28;20211;-90
2022/01/24 12:24:06;;;;;;;31.50;14.20;;;7.60;63.20;;;;;;4961752;28;20175;-90
2022/01/24 12:26:37;;;;;;;33.55;15.68;;;7.50;63.70;;;;;;4962092;28;20204;-90
2022/01/24 12:29:08;;;;;;;30.58;13.88;;;7.70;63.50;;;;;;4961821;28;20176;-90
2022/01/24 12:31:47;;;;;;;29.38;15.07;;;7.90;63.40;;;;;;4949528;28;20188;-90
2022/01/24 12:34:36;;;;;;;29.30;15.38;;;7.70;63.00;;;;;;4959992;29;20199;-91
2022/01/24 12:37:07;;;;;;;35.00;15.73;;;7.80;63.10;;;;;;4959479;28;20301;-90
2022/01/24 12:39:44;;;;;;;30.40;17.58;;;7.90;62.90;;;;;;4942763;29;20231;-90
2022/01/24 12:42:19;;;;;;;28.10;14.98;;;7.90;63.00;;;;;;4960002;29;20195;-90
2022/01/24 12:47:16;;;;;;;35.88;16.23;;;8.40;62.00;;;;;;4960823;29;20188;-90
2022/01/24 12:49:43;;;;;;;33.25;17.27;;;8.50;61.50;;;;;;4944561;29;20173;-90
2022/01/24 12:52:17;;;;;;;29.05;15.05;;;8.50;61.40;;;;;;4944964;29;20300;-90
2022/01/24 12:54:56;;;;;;;28.45;14.82;;;8.70;60.60;;;;;;4942906;28;20212;-90
2022/01/24 12:57:29;;;;;;;28.67;15.48;;;8.60;60.40;;;;;;4943618;29;20180;-90
2022/01/24 13:00:01;;;;;;;34.78;17.20;;;8.70;60.60;;;;;;4944714;29;20180;-90
2022/01/24 13:02:31;;;;;;;32.92;16.80;;;8.80;59.80;;;;;;4942228;29;20213;-90
2022/01/24 13:05:11;;;;;;;34.42;16.80;;;9.10;59.50;;;;;;4968862;28;20207;-90
2022/01/24 13:07:38;;;;;;;29.52;16.60;;;8.80;58.70;;;;;;4977111;28;20199;-92
2022/01/24 13:10:05;;;;;;;36.45;17.08;;;8.50;59.60;;;;;;4948354;29;20268;-90
2022/01/24 13:12:31;;;;;;;32.35;17.00;;;8.50;59.80;;;;;;4945351;29;20196;-90
2022/01/24 13:15:01;;;;;;;35.07;18.20;;;8.60;60.10;;;;;;4942957;29;20209;-90
2022/01/24 13:22:58;;;;;;;32.85;16.40;;;8.60;60.10;;;;;;4964748;28;20192;-90
2022/01/24 13:25:29;;;;;;;30.45;15.93;;;8.70;60.20;;;;;;4954632;28;20551;-90
2022/01/24 13:28:02;;;;;;;33.28;16.65;;;8.70;60.10;;;;;;4944220;29;20208;-90
2022/01/24 13:30:58;;;;;;;34.78;16.83;;;8.50;60.00;;;;;;4945821;29;20187;-89
2022/01/24 13:33:25;;;;;;;36.92;15.73;;;8.60;60.20;;;;;;4945159;29;20193;-90
2022/01/24 13:35:52;;;;;;;31.38;15.38;;;8.50;60.20;;;;;;4948214;29;20217;-90
2022/01/24 13:38:30;;;;;;;35.25;16.20;;;8.30;60.70;;;;;;4946471;29;20554;-90
2022/01/24 13:41:05;;;;;;;36.90;16.77;;;8.00;61.20;;;;;;4946837;29;20184;-90
2022/01/24 13:43:35;;;;;;;37.38;16.58;;;8.10;61.60;;;;;;4945957;29;20203;-89
2022/01/24 13:46:04;;;;;;;37.45;16.80;;;7.80;61.90;;;;;;4946624;29;20200;-89
2022/01/24 13:48:40;;;;;;;33.08;15.40;;;7.70;62.60;;;;;;4957536;28;20207;-90
2022/01/24 13:51:07;;;;;;;33.30;15.40;;;7.90;62.70;;;;;;4964758;28;20183;-90
2022/01/24 13:53:32;;;;;;;30.15;15.40;;;8.00;62.40;;;;;;4961639;28;20688;-90
2022/01/24 13:55:59;;;;;;;40.23;17.37;;;8.20;62.20;;;;;;4982523;28;20203;-90
2022/01/24 13:58:26;;;;;;;34.75;16.00;;;7.90;62.10;;;;;;4947852;29;20212;-91
2022/01/24 14:01:01;;;;;;;37.63;15.93;;;8.00;62.20;;;;;;4943541;29;20214;-90
2022/01/24 14:03:27;;;;;;;38.42;15.80;;;8.10;62.20;;;;;;4942178;29;20235;-89
2022/01/24 14:06:22;;;;;;;37.00;16.27;;;8.30;62.10;;;;;;4944639;29;20216;-90
2022/01/24 14:09:04;;;;;;;34.38;18.25;;;8.40;61.60;;;;;;4952824;28;20428;-90
2022/01/24 14:11:30;;;;;;;37.13;15.80;;;8.30;61.40;;;;;;4949990;28;20175;-90
2022/01/24 14:14:02;;;;;;;34.70;15.03;;;8.30;61.60;;;;;;4951261;28;20650;-89
2022/01/24 14:17:04;;;;;;;36.50;16.80;;;8.00;61.40;;;;;;4966940;28;20499;-90
2022/01/24 14:19:34;;;;;;;35.08;15.32;;;7.90;61.80;;;;;;4957454;29;20669;-89
2022/01/24 14:22:05;;;;;;;35.08;15.93;;;8.20;62.90;;;;;;4948610;28;20694;-90
2022/01/24 14:24:57;;;;;;;46.67;16.95;;;8.20;61.80;;;;;;4940340;28;20173;-90
2022/01/24 14:27:39;;;;;;;29.65;14.85;;;8.20;61.90;;;;;;4958434;29;20177;-90
2022/01/24 14:30:23;;;;;;;39.30;16.92;;;8.00;61.90;;;;;;4978352;28;20534;-90
2022/01/24 14:33:14;;;;;;;37.50;15.90;;;8.10;61.90;;;;;;4982314;28;20651;-90
2022/01/24 14:35:52;;;;;;;29.38;15.45;;;8.40;61.70;;;;;;4976566;28;20291;-90
2022/01/24 14:38:29;;;;;;;35.38;15.25;;;8.50;61.50;;;;;;4946627;29;20191;-89
2022/01/24 14:40:58;;;;;;;32.53;17.05;;;8.30;61.20;;;;;;4945300;29;20187;-90
2022/01/24 14:46:15;;;;;;;32.00;16.20;;;8.10;61.30;;;;;;4968665;28;20211;-90
2022/01/24 14:48:45;;;;;;;35.92;16.38;;;8.10;61.70;;;;;;4940858;29;20215;-90
2022/01/24 14:51:11;;;;;;;31.30;16.52;;;8.10;61.50;;;;;;4941135;29;20177;-90
2022/01/24 14:53:37;;;;;;;39.13;17.63;;;8.10;61.90;;;;;;4942465;29;20184;-90
2022/01/24 14:56:03;;;;;;;36.53;17.90;;;8.20;61.80;;;;;;4946880;28;21096;-90
2022/01/24 14:58:29;;;;;;;32.60;16.73;;;8.30;61.70;;;;;;4960264;28;20180;-90
2022/01/24 15:00:55;;;;;;;33.10;16.52;;;8.40;61.50;;;;;;4959659;28;20234;-90
2022/01/24 15:03:20;;;;;;;31.60;15.90;;;8.50;61.40;;;;;;4958059;28;20254;-89
2022/01/24 15:05:46;;;;;;;31.67;15.40;;;8.30;61.20;;;;;;4961240;28;20276;-89
2022/01/24 15:08:12;;;;;;;37.30;17.93;;;8.20;61.70;;;;;;4946614;29;20424;-89
2022/01/24 15:10:38;;;;;;;33.53;16.40;;;8.00;62.00;;;;;;4954976;29;20192;-89
2022/01/24 15:13:06;;;;;;;40.95;19.85;;;8.00;62.50;;;;;;4940300;29;20438;-90
2022/01/24 15:15:37;;;;;;;43.00;18.10;;;7.70;63.10;;;;;;4952484;28;20204;-91
2022/01/24 15:26:20;;;;;;;37.22;17.98;;;7.40;64.50;;;;;;4968229;28;20213;-89
2022/01/24 15:28:46;;;;;;;32.43;16.40;;;7.30;65.00;;;;;;4948198;28;20192;-89
2022/01/24 15:31:12;;;;;;;39.50;16.83;;;7.30;65.20;;;;;;4952162;28;20210;-88
2022/01/24 15:33:37;;;;;;;43.17;18.13;;;7.10;65.40;;;;;;4941580;29;20189;-89
2022/01/24 15:36:04;;;;;;;32.40;16.13;;;7.20;65.60;;;;;;4952484;28;20455;-89
2022/01/24 15:38:30;;;;;;;38.13;19.05;;;7.10;65.80;;;;;;4951440;28;20184;-88
2022/01/24 15:41:07;;;;;;;33.93;17.93;;;7.20;65.80;;;;;;4968801;28;20330;-88
2022/01/24 15:43:55;;;;;;;36.92;18.63;;;7.20;65.90;;;;;;4970737;28;20261;-88
2022/01/24 15:48:46;;;;;;;38.90;19.20;;;7.10;66.30;;;;;;4968069;29;20176;-92
2022/01/24 15:51:14;;;;;;;45.33;18.43;;;7.00;66.20;;;;;;4957209;29;20195;-92
2022/01/24 15:53:40;;;;;;;42.60;19.05;;;6.90;66.50;;;;;;4950460;29;20252;-89
2022/01/24 15:58:55;;;;;;;38.00;18.05;;;7.00;66.60;;;;;;4945346;28;20185;-89
2022/01/24 16:01:21;;;;;;;45.77;21.57;;;6.80;66.90;;;;;;4943459;29;20347;-88
2022/01/24 16:03:46;;;;;;;44.43;19.47;;;6.70;67.30;;;;;;4956927;28;20215;-88
2022/01/24 16:06:12;;;;;;;41.20;20.37;;;6.70;67.60;;;;;;4954284;28;20212;-89
2022/01/24 16:08:38;;;;;;;43.50;19.40;;;6.70;67.60;;;;;;4947975;29;20458;-89
2022/01/24 16:11:03;;;;;;;54.53;22.10;;;6.70;67.60;;;;;;4967797;28;20207;-89
2022/01/24 16:13:37;;;;;;;49.20;22.40;;;6.80;67.60;;;;;;4956972;29;20428;-89
2022/01/24 16:16:04;;;;;;;37.92;20.15;;;6.80;67.50;;;;;;4935226;29;20204;-89
2022/01/24 16:18:31;;;;;;;50.63;21.15;;;6.80;67.50;;;;;;4967094;28;20176;-89
2022/01/24 16:23:33;;;;;;;43.83;20.53;;;6.50;67.90;;;;;;4973599;28;20267;-89
2022/01/24 16:25:59;;;;;;;51.42;22.77;;;6.50;68.10;;;;;;4943377;28;20192;-86
2022/01/24 16:28:32;;;;;;;49.40;24.80;;;6.40;68.20;;;;;;4956400;29;20208;-87
2022/01/24 16:31:00;;;;;;;46.33;22.83;;;6.30;68.60;;;;;;4954462;28;20222;-87
2022/01/24 16:33:28;;;;;;;44.08;22.40;;;6.30;68.80;;;;;;4942116;29;20189;-90
2022/01/24 16:36:03;;;;;;;44.53;22.02;;;6.30;68.80;;;;;;4949144;28;20211;-89
2022/01/24 16:38:29;;;;;;;43.10;22.15;;;6.10;69.30;;;;;;4950679;29;20243;-87
2022/01/24 16:41:37;;;;;;;43.53;21.50;;;6.10;69.70;;;;;;4943801;28;20184;-88
2022/01/24 16:49:05;;;;;;;53.08;25.42;;;6.20;69.50;;;;;;4967586;28;20199;-89
2022/01/24 16:51:31;;;;;;;55.88;24.90;;;6.10;69.70;;;;;;4952674;28;20180;-89
2022/01/24 16:53:59;;;;;;;45.83;23.38;;;6.10;69.50;;;;;;4959746;28;20184;-89
2022/01/24 16:56:29;;;;;;;51.83;26.45;;;6.00;69.80;;;;;;4955712;28;20192;-89
2022/01/24 16:58:55;;;;;;;57.90;26.83;;;5.90;70.10;;;;;;4966260;28;20520;-89
2022/01/24 17:01:23;;;;;;;55.28;25.65;;;5.90;70.50;;;;;;4958075;28;20184;-89
2022/01/24 17:03:50;;;;;;;48.72;25.02;;;5.80;70.70;;;;;;4951464;29;20223;-89
